Time;durP1;ratioP1;P1;durP2;ratioP2;P2;SDS_P1;SDS_P2;PMS_P1;PMS_P2;Temp;Humidity;BMP_temperature;BMP_pressure;BME280_temperature;BME280_humidity;BME280_pressure;Samples;Min_cycle;Max_cycle;Signal;HPM_P1;HPM_P2
2022/08/19 20:42:04;;;;;;;;;;;;;;;22.64;65.01;99582.09;1083678;54;19943;-75
2022/08/19 20:43:09;;;;;;;;;;;;;;;22.66;64.92;99579.16;1083932;54;19954;-77
2022/08/19 20:44:13;;;;;;;;;;;;;;;22.70;64.70;99583.03;1083672;54;19970;-77
2022/08/19 20:45:15;;;;;;;;;;;;;;;22.73;64.66;99590.75;1083805;36;19947;-77
2022/08/19 20:46:19;;;;;;;;;;;;;;;22.63;65.11;99590.50;1084503;39;20340;-74
2022/08/19 20:47:21;;;;;;;;;;;;;;;22.53;65.49;99586.47;1084201;54;19974;-75
2022/08/19 20:48:25;;;;;;;;;;;;;;;22.54;65.06;99590.84;1083721;54;19981;-74
2022/08/19 20:49:29;;;;;;;;;;;;;;;22.56;65.24;99586.00;1083618;54;19946;-77
2022/08/19 20:50:30;;;;;;;;;;;;;;;22.56;65.29;99591.44;1083497;54;19946;-77
2022/08/19 20:51:34;;;;;;;;;;;;;;;22.48;65.31;99582.78;1084148;39;20345;-77
2022/08/19 20:52:37;;;;;;;;;;;;;;;22.55;65.18;99583.50;1083762;54;19954;-77
2022/08/19 20:53:41;;;;;;;;;;;;;;;22.63;64.92;99579.59;1083547;54;19950;-75
2022/08/19 20:54:42;;;;;;;;;;;;;;;22.65;64.64;99582.94;1084551;39;20412;-75
2022/08/19 20:55:48;;;;;;;;;;;;;;;22.68;64.77;99587.88;1084024;54;19978;-74
2022/08/19 20:56:49;;;;;;;;;;;;;;;22.70;64.48;99589.34;1083812;54;19946;-75
2022/08/19 20:57:57;;;;;;;;;;;;;;;22.68;64.74;99590.59;1083457;54;20033;-74
2022/08/19 20:59:03;;;;;;;;;;;;;;;22.72;64.62;99587.19;1083413;54;20452;-75
2022/08/19 21:00:07;;;;;;;;;;;;;;;22.72;64.43;99594.53;1084065;54;20910;-75
2022/08/19 21:01:11;;;;;;;;;;;;;;;22.73;64.15;99588.03;1083480;54;19973;-75
2022/08/19 21:02:12;;;;;;;;;;;;;;;22.71;64.21;99588.28;1083790;54;19965;-74
2022/08/19 21:03:18;;;;;;;;;;;;;;;22.70;64.32;99591.22;1083542;54;19950;-75
2022/08/19 21:04:22;;;;;;;;;;;;;;;22.77;64.01;99589.19;1083662;54;19950;-75
2022/08/19 21:05:24;;;;;;;;;;;;;;;22.83;64.11;99593.72;1083599;54;19947;-75
2022/08/19 21:06:28;;;;;;;;;;;;;;;22.82;63.81;99592.06;1083209;54;19947;-75
2022/08/19 21:07:29;;;;;;;;;;;;;;;22.80;64.16;99596.91;1082541;54;19981;-78
2022/08/19 21:08:33;;;;;;;;;;;;;;;22.82;63.87;99594.78;1082506;54;19946;-75
2022/08/19 21:09:35;;;;;;;;;;;;;;;22.85;63.69;99588.03;1082881;54;19946;-75
2022/08/19 21:10:39;;;;;;;;;;;;;;;22.85;63.70;99586.16;1083237;54;19946;-75
2022/08/19 21:11:43;;;;;;;;;;;;;;;22.88;63.43;99579.38;1082715;54;19938;-77
2022/08/19 21:12:45;;;;;;;;;;;;;;;22.90;63.29;99591.69;1083223;54;19987;-77
2022/08/19 21:13:51;;;;;;;;;;;;;;;22.88;63.63;99587.56;1083515;54;20965;-77
2022/08/19 21:14:52;;;;;;;;;;;;;;;22.87;63.36;99586.72;1084011;54;19947;-77
2022/08/19 21:15:57;;;;;;;;;;;;;;;22.87;63.63;99592.16;1084177;39;20345;-77
2022/08/19 21:16:58;;;;;;;;;;;;;;;22.90;63.42;99575.34;1083853;54;19974;-77
2022/08/19 21:18:02;;;;;;;;;;;;;;;22.94;63.21;99583.88;1083457;54;19962;-77
2022/08/19 21:19:03;;;;;;;;;;;;;;;22.92;63.24;99593.34;1083615;54;19947;-77
2022/08/19 21:20:08;;;;;;;;;;;;;;;22.93;63.09;99589.56;1083717;54;20484;-77
2022/08/19 21:21:09;;;;;;;;;;;;;;;22.96;63.24;99594.53;1083467;54;19946;-76
2022/08/19 21:22:13;;;;;;;;;;;;;;;22.95;63.14;99592.91;1083517;54;20747;-77
2022/08/19 21:23:16;;;;;;;;;;;;;;;22.96;62.83;99595.38;1083664;54;19946;-76
2022/08/19 21:24:20;;;;;;;;;;;;;;;22.99;62.88;99594.06;1083418;54;19946;-77
2022/08/19 21:25:21;;;;;;;;;;;;;;;22.98;63.11;99587.78;1083871;54;19947;-78
2022/08/19 21:26:25;;;;;;;;;;;;;;;22.97;63.10;99591.59;1083865;54;19939;-77
2022/08/19 21:27:27;;;;;;;;;;;;;;;22.99;62.90;99591.34;1083463;54;19939;-77
2022/08/19 21:28:31;;;;;;;;;;;;;;;22.97;62.88;99597.03;1083536;54;19946;-77
2022/08/19 21:29:37;;;;;;;;;;;;;;;22.97;62.61;99596.19;1083445;54;19961;-77
2022/08/19 21:30:42;;;;;;;;;;;;;;;22.93;62.64;99597.75;1083614;54;19946;-77
2022/08/19 21:31:45;;;;;;;;;;;;;;;22.90;63.37;99597.16;1085042;54;19938;-75
2022/08/19 21:32:47;;;;;;;;;;;;;;;22.90;63.33;99599.88;1085302;54;19939;-75
2022/08/19 21:33:51;;;;;;;;;;;;;;;22.89;63.40;99595.47;1085639;54;19946;-75
2022/08/19 21:34:52;;;;;;;;;;;;;;;22.91;63.21;99603.41;1085899;54;19974;-75
2022/08/19 21:35:56;;;;;;;;;;;;;;;22.91;63.43;99597.97;1086681;39;20360;-75
2022/08/19 21:36:58;;;;;;;;;;;;;;;22.92;63.55;99601.53;1085890;46;19951;-75
2022/08/19 21:38:02;;;;;;;;;;;;;;;22.92;63.47;99605.06;1085588;54;20076;-75
2022/08/19 21:39:03;;;;;;;;;;;;;;;22.93;63.57;99604.00;1085494;54;19963;-75
2022/08/19 21:40:09;;;;;;;;;;;;;;;22.94;63.92;99607.56;1085601;54;19947;-75
2022/08/19 21:41:10;;;;;;;;;;;;;;;22.95;63.50;99601.88;1085553;54;19946;-75
2022/08/19 21:42:14;;;;;;;;;;;;;;;22.96;63.66;99608.16;1084936;39;20627;-74
2022/08/19 21:43:16;;;;;;;;;;;;;;;22.97;63.67;99604.34;1084529;39;20322;-75
2022/08/19 21:44:20;;;;;;;;;;;;;;;22.96;64.01;99606.28;1084177;54;19962;-75
2022/08/19 21:45:24;;;;;;;;;;;;;;;22.91;64.72;99614.31;1084157;54;19939;-75
2022/08/19 21:46:28;;;;;;;;;;;;;;;22.89;64.36;99614.56;1083991;54;19939;-77
2022/08/19 21:47:29;;;;;;;;;;;;;;;22.89;64.35;99611.03;1083990;54;19938;-77
2022/08/19 21:48:33;;;;;;;;;;;;;;;22.90;64.37;99613.50;1083263;54;19946;-77
2022/08/19 21:49:34;;;;;;;;;;;;;;;22.92;63.96;99612.44;1082713;54;19971;-77
2022/08/19 21:50:38;;;;;;;;;;;;;;;22.90;64.23;99618.94;1083985;54;19939;-75
2022/08/19 21:51:39;;;;;;;;;;;;;;;22.92;63.97;99615.16;1083891;54;19947;-75
2022/08/19 21:52:43;;;;;;;;;;;;;;;22.92;64.35;99612.44;1084597;39;20314;-75
2022/08/19 21:53:44;;;;;;;;;;;;;;;22.93;64.33;99614.09;1083640;54;19957;-75
2022/08/19 21:54:49;;;;;;;;;;;;;;;22.95;63.78;99622.88;1084148;54;19950;-75
2022/08/19 21:55:50;;;;;;;;;;;;;;;22.94;64.14;99615.75;1084055;54;19942;-74
2022/08/19 21:56:54;;;;;;;;;;;;;;;22.90;64.46;99624.41;1084106;54;19962;-75
2022/08/19 21:57:58;;;;;;;;;;;;;;;22.89;64.76;99621.91;1083949;54;19994;-75
2022/08/19 21:59:04;;;;;;;;;;;;;;;22.88;64.27;99623.78;1083734;54;19958;-76
2022/08/19 22:00:11;;;;;;;;;;;;;;;22.89;64.34;99625.47;1083660;54;19947;-77
2022/08/19 22:01:18;;;;;;;;;;;;;;;22.88;64.24;99628.44;1084005;54;20529;-75
2022/08/19 22:02:19;;;;;;;;;;;;;;;22.85;64.54;99624.28;1084299;39;20309;-75
2022/08/19 22:03:24;;;;;;;;;;;;;;;22.83;64.67;99634.59;1083680;54;19955;-75
2022/08/19 22:04:26;;;;;;;;;;;;;;;22.81;64.29;99631.25;1084166;46;19946;-75
2022/08/19 22:05:32;;;;;;;;;;;;;;;22.80;64.56;99626.88;1083724;54;19951;-75
2022/08/19 22:06:33;;;;;;;;;;;;;;;22.80;64.41;99626.88;1083870;54;20026;-75
2022/08/19 22:07:37;;;;;;;;;;;;;;;22.82;64.47;99621.19;1084110;39;20401;-75
2022/08/19 22:08:40;;;;;;;;;;;;;;;22.82;64.39;99627.47;1083869;54;19998;-75
2022/08/19 22:09:45;;;;;;;;;;;;;;;22.78;64.48;99625.47;1083607;54;20429;-75
2022/08/19 22:10:47;;;;;;;;;;;;;;;22.75;64.69;99630.31;1083197;39;21376;-75
2022/08/19 22:11:51;;;;;;;;;;;;;;;22.76;64.75;99631.16;1083907;54;20682;-75
2022/08/19 22:12:55;;;;;;;;;;;;;;;22.77;64.67;99623.78;1084001;54;19954;-75
2022/08/19 22:13:59;;;;;;;;;;;;;;;22.76;64.56;99622.97;1084443;39;20409;-75
2022/08/19 22:15:00;;;;;;;;;;;;;;;22.75;64.50;99618.59;1083848;54;19962;-75
2022/08/19 22:16:04;;;;;;;;;;;;;;;22.65;64.70;99618.34;1083978;54;20016;-76
2022/08/19 22:17:08;;;;;;;;;;;;;;;22.59;65.17;99622.84;1083768;54;19946;-75
2022/08/19 22:18:12;;;;;;;;;;;;;;;22.52;65.56;99622.94;1084007;39;20348;-75
2022/08/19 22:19:14;;;;;;;;;;;;;;;22.52;65.63;99628.38;1083356;54;19939;-75
2022/08/19 22:20:19;;;;;;;;;;;;;;;22.51;65.71;99628.63;1084045;39;20262;-77
2022/08/19 22:21:21;;;;;;;;;;;;;;;22.50;65.29;99630.50;1083691;54;19971;-75
2022/08/19 22:22:26;;;;;;;;;;;;;;;22.52;65.38;99633.81;1083743;54;19969;-75
2022/08/19 22:23:30;;;;;;;;;;;;;;;22.56;65.29;99629.59;1083940;54;19990;-75
2022/08/19 22:24:31;;;;;;;;;;;;;;;22.57;64.94;99628.53;1083494;54;19946;-75
2022/08/19 22:25:36;;;;;;;;;;;;;;;22.55;65.20;99627.91;1083633;54;19946;-75
2022/08/19 22:26:37;;;;;;;;;;;;;;;22.57;65.01;99628.53;1083576;54;19983;-75
2022/08/19 22:27:41;;;;;;;;;;;;;;;22.56;64.91;99629.59;1083635;54;19946;-77
2022/08/19 22:28:43;;;;;;;;;;;;;;;22.52;65.31;99628.38;1083585;54;19961;-75
2022/08/19 22:29:47;;;;;;;;;;;;;;;22.49;65.05;99628.84;1083177;54;19986;-75
2022/08/19 22:30:49;;;;;;;;;;;;;;;22.46;65.29;99625.75;1083619;54;19954;-75
2022/08/19 22:31:52;;;;;;;;;;;;;;;22.43;65.46;99629.78;1083878;54;19947;-75
2022/08/19 22:32:59;;;;;;;;;;;;;;;22.39;65.47;99634.00;1083455;54;19946;-75
2022/08/19 22:34:03;;;;;;;;;;;;;;;22.31;66.03;99637.03;1084360;39;20452;-75
2022/08/19 22:35:08;;;;;;;;;;;;;;;22.24;66.17;99632.53;1083586;54;19971;-76
2022/08/19 22:36:12;;;;;;;;;;;;;;;22.28;66.03;99643.78;1083651;54;20460;-75
2022/08/19 22:37:14;;;;;;;;;;;;;;;22.29;66.23;99642.72;1083653;54;19946;-75
2022/08/19 22:38:18;;;;;;;;;;;;;;;22.32;66.07;99641.44;1083795;54;19947;-75
2022/08/19 22:39:19;;;;;;;;;;;;;;;22.32;66.14;99644.16;1083424;54;19947;-75
2022/08/19 22:40:23;;;;;;;;;;;;;;;22.25;66.04;99647.81;1083362;54;20015;-75
2022/08/19 22:41:26;;;;;;;;;;;;;;;22.24;66.29;99645.34;1083962;39;20329;-76
2022/08/19 22:42:31;;;;;;;;;;;;;;;22.20;66.43;99638.69;1083913;54;19946;-75
2022/08/19 22:43:32;;;;;;;;;;;;;;;22.21;66.18;99645.78;1083621;54;19942;-76
2022/08/19 22:44:37;;;;;;;;;;;;;;;22.17;66.36;99645.44;1083525;54;20016;-75
2022/08/19 22:45:38;;;;;;;;;;;;;;;22.11;66.76;99644.44;1083810;54;19987;-75
2022/08/19 22:46:42;;;;;;;;;;;;;;;22.09;67.16;99645.75;1083891;54;19950;-75
2022/08/19 22:47:44;;;;;;;;;;;;;;;22.14;66.92;99651.31;1083965;54;19971;-77
2022/08/19 22:48:51;;;;;;;;;;;;;;;22.18;66.60;99646.25;1083847;39;20361;-75
2022/08/19 22:49:52;;;;;;;;;;;;;;;22.23;66.71;99646.41;1083727;54;19974;-76
2022/08/19 22:52:19;;;;;;;;;;;;;;;22.23;66.88;99640.94;1083849;54;19946;-75
2022/08/19 22:53:20;;;;;;;;;;;;;;;22.15;66.80;99639.38;1084158;39;20755;-75
2022/08/19 22:54:21;;;;;;;;;;;;;;;22.14;67.17;99648.59;1083806;54;20405;-75
2022/08/19 22:55:25;;;;;;;;;;;;;;;22.15;66.71;99655.69;1083880;54;20002;-75
2022/08/19 22:56:27;;;;;;;;;;;;;;;22.16;66.94;99651.94;1083805;54;20651;-76
2022/08/19 22:57:31;;;;;;;;;;;;;;;22.17;66.68;99653.59;1083667;54;19951;-75
2022/08/19 22:58:33;;;;;;;;;;;;;;;22.19;66.58;99653.34;1083624;54;20441;-75
2022/08/19 22:59:37;;;;;;;;;;;;;;;22.19;66.66;99651.47;1083930;54;19946;-75
2022/08/19 23:00:39;;;;;;;;;;;;;;;22.19;66.73;99656.91;1084765;54;19970;-75
2022/08/19 23:01:43;;;;;;;;;;;;;;;22.22;66.67;99658.34;1086308;54;19947;-75
2022/08/19 23:02:45;;;;;;;;;;;;;;;22.23;66.83;99662.72;1086342;54;19954;-76
2022/08/19 23:03:52;;;;;;;;;;;;;;;22.22;66.54;99656.44;1086335;54;19962;-75
2022/08/19 23:04:53;;;;;;;;;;;;;;;22.10;67.85;99664.56;1086512;54;19951;-75
2022/08/19 23:05:57;;;;;;;;;;;;;;;22.03;67.99;99652.94;1087844;39;20384;-76
2022/08/19 23:06:58;;;;;;;;;;;;;;;22.02;67.96;99666.75;1087085;54;19949;-74
2022/08/19 23:08:02;;;;;;;;;;;;;;;22.01;67.87;99659.69;1086538;54;19995;-75
2022/08/19 23:09:05;;;;;;;;;;;;;;;22.01;67.38;99659.69;1086503;46;19939;-76
2022/08/19 23:10:11;;;;;;;;;;;;;;;21.99;67.57;99650.91;1086153;54;19947;-75
2022/08/19 23:11:13;;;;;;;;;;;;;;;21.97;67.66;99660.13;1086846;54;19953;-75
2022/08/19 23:12:18;;;;;;;;;;;;;;;21.95;67.75;99656.00;1086640;54;19973;-75
2022/08/19 23:13:19;;;;;;;;;;;;;;;21.96;67.36;99655.75;1087231;54;19963;-76
2022/08/19 23:14:23;;;;;;;;;;;;;;;21.96;67.50;99652.22;1086989;54;19973;-76
2022/08/19 23:15:26;;;;;;;;;;;;;;;21.94;67.62;99655.13;1084988;54;20050;-76
2022/08/19 23:16:30;;;;;;;;;;;;;;;21.95;67.55;99647.81;1085014;39;20357;-76
2022/08/19 23:17:31;;;;;;;;;;;;;;;21.94;67.18;99648.88;1084036;54;19942;-75
2022/08/19 23:18:35;;;;;;;;;;;;;;;21.94;67.23;99649.69;1083486;54;19946;-75
2022/08/19 23:19:39;;;;;;;;;;;;;;;21.96;67.34;99650.31;1083719;54;19950;-75
2022/08/19 23:20:45;;;;;;;;;;;;;;;21.97;66.95;99643.81;1083564;54;19950;-76
2022/08/19 23:21:46;;;;;;;;;;;;;;;21.99;67.03;99645.47;1083688;54;19963;-75
2022/08/19 23:22:51;;;;;;;;;;;;;;;21.99;66.85;99649.00;1083690;54;19946;-76
2022/08/19 23:23:52;;;;;;;;;;;;;;;22.00;66.83;99647.94;1083784;54;19989;-75
2022/08/19 23:24:56;;;;;;;;;;;;;;;21.97;66.86;99642.97;1083618;54;19974;-75
2022/08/19 23:25:58;;;;;;;;;;;;;;;21.96;66.43;99644.88;1084211;46;19939;-75
2022/08/19 23:30:51;;;;;;;;;;;;;;;22.01;65.15;99652.34;1083463;54;20429;-75
2022/08/19 23:31:52;;;;;;;;;;;;;;;22.04;65.20;99653.75;1083766;54;19955;-75
2022/08/19 23:32:56;;;;;;;;;;;;;;;22.04;65.02;99651.88;1083735;54;19973;-76
2022/08/19 23:33:58;;;;;;;;;;;;;;;22.06;64.72;99652.47;1083260;54;19935;-75
2022/08/19 23:35:06;;;;;;;;;;;;;;;22.07;63.87;99656.03;1084515;39;20442;-75
2022/08/19 23:36:10;;;;;;;;;;;;;;;22.03;63.49;99652.09;1083606;54;19958;-75
2022/08/19 23:37:15;;;;;;;;;;;;;;;22.04;63.63;99651.03;1083559;54;19946;-75
2022/08/19 23:38:17;;;;;;;;;;;;;;;22.01;63.62;99656.97;1083627;54;19946;-75
2022/08/19 23:39:21;;;;;;;;;;;;;;;22.02;63.34;99655.88;1083359;54;20512;-75
2022/08/19 23:40:22;;;;;;;;;;;;;;;22.01;63.03;99659.69;1083623;54;19993;-75
2022/08/19 23:41:27;;;;;;;;;;;;;;;21.99;62.67;99650.91;1083552;54;20442;-75
2022/08/19 23:42:28;;;;;;;;;;;;;;;21.95;62.96;99658.72;1083764;54;19955;-75
2022/08/19 23:43:32;;;;;;;;;;;;;;;21.92;62.96;99656.44;1083694;54;19970;-75
2022/08/19 23:44:33;;;;;;;;;;;;;;;21.89;61.83;99657.72;1084114;39;20369;-76
2022/08/19 23:45:40;;;;;;;;;;;;;;;21.92;61.68;99656.44;1083496;54;19939;-75
2022/08/19 23:46:41;;;;;;;;;;;;;;;21.90;61.88;99653.94;1083753;54;19947;-75
2022/08/19 23:47:46;;;;;;;;;;;;;;;21.86;61.43;99662.81;1083652;54;19969;-75
2022/08/19 23:48:47;;;;;;;;;;;;;;;21.87;61.80;99653.59;1083161;54;20433;-75
2022/08/19 23:49:51;;;;;;;;;;;;;;;21.87;61.45;99656.31;1083360;54;19946;-75
2022/08/19 23:50:55;;;;;;;;;;;;;;;21.88;60.71;99649.78;1083395;54;20141;-75
2022/08/19 23:52:00;;;;;;;;;;;;;;;21.90;61.06;99659.41;1083154;54;19951;-76
2022/08/19 23:53:02;;;;;;;;;;;;;;;21.89;60.98;99657.72;1082846;54;19950;-75
2022/08/19 23:54:05;;;;;;;;;;;;;;;21.88;59.83;99655.22;1082674;54;19951;-75
2022/08/19 23:55:07;;;;;;;;;;;;;;;21.90;60.14;99659.41;1083034;54;19958;-75
2022/08/19 23:56:11;;;;;;;;;;;;;;;21.92;59.93;99657.25;1082439;54;19953;-75
2022/08/19 23:57:13;;;;;;;;;;;;;;;21.86;58.85;99657.38;1082150;54;19989;-75
2022/08/19 23:58:17;;;;;;;;;;;;;;;21.88;59.08;99655.22;1082306;54;20002;-76
2022/08/19 23:59:19;;;;;;;;;;;;;;;21.85;58.84;99661.94;1082159;54;19947;-75
